Time;durP1;ratioP1;P1;durP2;ratioP2;P2;SDS_P1;SDS_P2;PMS_P1;PMS_P2;Temp;Humidity;BMP_temperature;BMP_pressure;BME280_temperature;BME280_humidity;BME280_pressure;Samples;Min_cycle;Max_cycle;Signal;HPM_P1;HPM_P2
2022/06/14 00:01:47;;;;;;;11.15;5.65;;;15.20;99.90;;;15.72;74.21;102329.28;5114086;28;20114;-60
2022/06/14 00:04:15;;;;;;;11.48;5.35;;;15.20;99.90;;;15.73;74.77;102327.50;5114602;28;20054;-60
2022/06/14 00:06:44;;;;;;;12.45;5.35;;;15.20;99.90;;;15.68;74.32;102307.97;5114041;28;20118;-60
2022/06/14 00:09:12;;;;;;;10.77;5.38;;;15.30;99.90;;;15.81;73.98;102328.38;5113975;28;20072;-60
2022/06/14 00:11:41;;;;;;;8.88;5.03;;;15.30;99.90;;;15.73;73.38;102324.84;5113986;28;20042;-60
2022/06/14 00:14:11;;;;;;;7.40;4.93;;;15.30;99.90;;;15.72;72.68;102328.38;5113939;28;20401;-60
2022/06/14 00:16:40;;;;;;;9.23;5.78;;;15.20;99.90;;;15.67;72.55;102322.19;5114364;28;20040;-60
2022/06/14 00:19:08;;;;;;;10.18;5.30;;;15.20;99.90;;;15.53;73.13;102302.63;5114187;28;20039;-60
2022/06/14 00:21:37;;;;;;;10.93;5.97;;;15.20;99.90;;;15.74;73.58;102351.50;5113735;28;20451;-60
2022/06/14 00:24:07;;;;;;;10.18;5.45;;;15.30;99.90;;;15.78;73.64;102328.38;5113745;28;20378;-60
2022/06/14 00:26:35;;;;;;;7.93;5.60;;;15.30;99.90;;;15.80;73.01;102329.25;5113717;28;20043;-60
2022/06/14 00:29:04;;;;;;;11.05;5.72;;;15.40;99.90;;;15.85;71.94;102330.16;5095583;28;20126;-60
2022/06/14 00:31:34;;;;;;;10.13;5.90;;;15.40;99.90;;;15.89;71.53;102335.44;5113711;28;20116;-60
2022/06/14 00:34:03;;;;;;;9.13;5.28;;;15.50;99.90;;;15.74;72.19;102310.59;5114197;28;20053;-60
2022/06/14 00:36:35;;;;;;;9.43;5.53;;;15.50;99.90;;;15.85;73.44;102336.34;5114256;28;20130;-60
2022/06/14 00:39:07;;;;;;;9.75;5.80;;;15.50;99.90;;;15.63;73.46;102328.41;5113991;28;20043;-60
2022/06/14 00:41:39;;;;;;;6.47;4.90;;;15.30;99.90;;;15.49;73.56;102307.09;5113762;28;20130;-60
2022/06/14 00:44:13;;;;;;;7.30;5.22;;;15.20;99.90;;;15.64;73.87;102325.72;5113550;28;20055;-60
2022/06/14 00:46:53;;;;;;;10.85;5.78;;;15.20;99.90;;;15.73;74.23;102322.16;5113265;28;20054;-59
2022/06/14 00:49:26;;;;;;;6.35;4.60;;;15.30;99.90;;;15.65;74.35;102326.63;5113535;28;20078;-60
2022/06/14 00:52:00;;;;;;;5.63;5.13;;;15.20;99.90;;;15.46;73.83;102330.22;5113210;28;20436;-60
2022/06/14 00:54:35;;;;;;;12.13;5.72;;;15.10;99.90;;;15.33;73.68;102323.94;5113535;28;20456;-60
2022/06/14 00:57:09;;;;;;;6.38;4.82;;;15.00;99.90;;;15.41;73.28;102331.97;5113385;28;20047;-60
2022/06/14 00:59:43;;;;;;;9.80;5.72;;;15.00;99.90;;;15.50;73.09;102337.31;5113105;28;20544;-60
2022/06/14 01:02:20;;;;;;;8.95;5.78;;;15.10;99.90;;;15.47;73.72;102326.63;5112954;28;20073;-61
2022/06/14 01:04:49;;;;;;;13.90;6.05;;;15.10;99.90;;;15.35;73.22;102325.72;5112887;28;20040;-60
2022/06/14 01:07:22;;;;;;;9.55;5.70;;;15.00;99.90;;;15.29;72.17;102324.88;5112747;28;20119;-60
2022/06/14 01:09:56;;;;;;;10.93;6.00;;;14.90;99.90;;;15.27;72.60;102316.84;5113019;28;20443;-60
2022/06/14 01:12:29;;;;;;;10.38;6.00;;;14.90;99.90;;;15.23;72.46;102307.06;5094182;28;20370;-60
2022/06/14 01:15:05;;;;;;;9.00;6.20;;;14.90;99.90;;;15.25;73.41;102310.63;5112838;28;20071;-60
2022/06/14 01:17:41;;;;;;;11.65;5.95;;;14.90;99.90;;;15.30;74.21;102314.19;5112522;28;20054;-60
2022/06/14 01:20:12;;;;;;;7.80;5.00;;;14.80;99.90;;;15.40;75.03;102309.75;5112522;28;20055;-60
2022/06/14 01:22:41;;;;;;;;;;;14.90;99.90;;;15.38;76.53;102300.84;5112938;28;20073;-60
2022/06/14 01:25:10;;;;;;;8.10;4.80;;;14.90;99.90;;;15.21;76.00;102306.19;5094029;28;19920;-60
2022/06/14 01:27:41;;;;;;;8.45;5.10;;;14.90;99.90;;;15.38;75.71;102296.41;5094242;28;20047;-60
2022/06/14 01:30:15;;;;;;;5.63;5.07;;;14.80;99.90;;;15.38;76.38;102300.84;5112931;28;20130;-60
2022/06/14 01:32:51;;;;;;;6.13;4.18;;;14.90;99.90;;;15.15;77.59;102292.00;5112615;28;20408;-60
2022/06/14 01:35:23;;;;;;;4.53;4.13;;;14.70;99.90;;;15.20;78.48;102280.44;5112771;28;20123;-60
2022/06/14 01:37:56;;;;;;;6.10;3.83;;;14.70;99.90;;;15.19;77.93;102285.78;5112237;28;20077;-60
2022/06/14 01:40:32;;;;;;;11.98;4.90;;;14.70;99.90;;;14.95;76.67;102273.31;5112193;28;20048;-60
2022/06/14 01:43:22;;;;;;;5.65;4.25;;;14.60;99.90;;;15.04;76.75;102283.97;5112504;28;20039;-60
2022/06/14 01:46:03;;;;;;;7.57;4.88;;;14.60;99.90;;;15.12;76.62;102287.53;5112174;28;20051;-60
2022/06/14 01:48:32;;;;;;;;;;;14.70;99.90;;;14.92;75.08;102281.34;5112911;28;20492;-60
2022/06/14 01:54:07;;;;;;;9.02;5.30;;;14.60;99.90;;;14.85;74.85;102276.88;5112653;28;20403;-60
2022/06/14 01:56:45;;;;;;;9.77;4.97;;;14.40;99.90;;;14.99;75.23;102280.44;5116362;28;20082;-60
2022/06/14 01:59:23;;;;;;;7.88;5.20;;;14.50;99.90;;;15.04;75.46;102280.44;5116274;28;20039;-60
2022/06/14 02:02:01;;;;;;;7.10;5.38;;;14.50;99.90;;;14.99;75.77;102269.78;5116563;28;20047;-60
2022/06/14 02:04:40;;;;;;;11.55;5.88;;;14.50;99.90;;;15.06;76.34;102271.53;5116243;28;20553;-60
2022/06/14 02:07:24;;;;;;;6.03;5.05;;;14.60;99.90;;;14.99;76.18;102259.13;5116400;28;20165;-60
2022/06/14 02:10:04;;;;;;;7.97;5.47;;;14.60;99.90;;;14.87;75.45;102263.53;5116604;28;20050;-60
2022/06/14 02:12:43;;;;;;;5.63;5.00;;;14.50;99.90;;;14.92;75.78;102272.44;5115985;28;20101;-60
2022/06/14 02:15:24;;;;;;;8.43;4.85;;;14.50;99.90;;;14.89;76.18;102260.00;5116169;28;20101;-60
2022/06/14 02:18:02;;;;;;;6.88;4.65;;;14.40;99.90;;;14.85;76.65;102266.22;5115922;28;20464;-60
2022/06/14 02:20:37;;;;;;;6.97;5.22;;;14.40;99.90;;;14.84;76.50;102264.44;5115923;28;20071;-60
2022/06/14 02:23:09;;;;;;;7.65;5.70;;;14.40;99.90;;;14.70;75.84;102249.34;5097746;28;20082;-60
2022/06/14 02:25:47;;;;;;;9.60;5.95;;;14.40;99.90;;;14.96;75.54;102259.09;5115788;28;20047;-60
2022/06/14 02:28:22;;;;;;;9.15;6.03;;;14.50;99.90;;;15.04;75.18;102270.66;5115846;28;20047;-60
2022/06/14 02:30:57;;;;;;;6.13;5.32;;;14.60;99.90;;;15.09;75.28;102276.88;5097538;28;20096;-60
2022/06/14 02:33:34;;;;;;;9.48;5.40;;;14.60;99.90;;;15.08;76.23;102268.88;5115849;28;20409;-60
2022/06/14 02:36:07;;;;;;;9.27;5.18;;;14.60;99.90;;;15.15;76.46;102265.34;5115749;28;20501;-60
2022/06/14 02:38:41;;;;;;;9.15;5.80;;;14.70;99.90;;;15.18;76.78;102289.31;5115902;28;20074;-60
2022/06/14 02:41:19;;;;;;;6.95;5.65;;;14.70;99.90;;;15.10;76.94;102269.75;5115568;28;20048;-60
2022/06/14 02:43:54;;;;;;;7.00;5.10;;;14.70;99.90;;;15.09;77.26;102265.34;5115824;28;20130;-60
2022/06/14 02:46:31;;;;;;;5.47;4.97;;;14.60;99.90;;;15.12;77.48;102265.31;5115468;28;20078;-60
2022/06/14 02:49:08;;;;;;;5.13;4.55;;;14.70;99.90;;;14.95;77.16;102244.03;5115425;28;20044;-60
2022/06/14 02:51:43;;;;;;;7.32;5.05;;;14.60;99.90;;;14.98;77.47;102252.00;5115451;28;20043;-60
2022/06/14 02:54:20;;;;;;;4.85;4.38;;;14.50;99.90;;;14.87;78.06;102247.56;5115397;28;20124;-60
2022/06/14 02:56:58;;;;;;;6.10;4.90;;;14.50;99.90;;;14.87;78.36;102253.78;5115705;28;20131;-60
2022/06/14 02:59:33;;;;;;;8.32;4.97;;;14.40;99.90;;;14.76;78.82;102257.31;5115968;28;20064;-60
2022/06/14 03:02:09;;;;;;;9.38;6.05;;;14.30;99.90;;;14.86;77.84;102253.78;5115317;28;20074;-60
2022/06/14 03:04:45;;;;;;;6.72;5.60;;;14.30;99.90;;;14.66;76.98;102252.88;5115298;28;20454;-60
2022/06/14 03:07:21;;;;;;;5.88;4.95;;;14.30;99.90;;;14.35;76.38;102235.97;5115593;28;20050;-60
2022/06/14 03:09:50;;;;;;;8.75;5.30;;;14.10;99.90;;;14.50;76.10;102259.94;5115580;28;20048;-59
2022/06/14 03:12:35;;;;;;;6.72;5.30;;;14.10;99.90;;;14.51;77.22;102261.75;5115792;28;20082;-60
2022/06/14 03:15:12;;;;;;;6.53;4.93;;;14.00;99.90;;;14.52;78.71;102244.88;5115579;28;20069;-60
2022/06/14 03:17:55;;;;;;;9.30;6.05;;;14.10;99.90;;;14.48;78.61;102245.75;5115063;28;20043;-60
2022/06/14 03:20:39;;;;;;;10.10;5.63;;;14.00;99.90;;;14.55;78.25;102234.25;5115404;28;20476;-60
2022/06/14 03:23:20;;;;;;;9.32;5.72;;;14.20;99.90;;;14.57;76.18;102243.13;5115342;28;20104;-60
2022/06/14 03:25:56;;;;;;;7.65;5.10;;;14.10;99.90;;;14.48;76.67;102238.66;5115575;28;20162;-60
2022/06/14 03:28:36;;;;;;;8.00;5.32;;;14.10;99.90;;;14.63;77.83;102251.13;5115213;28;20447;-60
2022/06/14 03:31:11;;;;;;;10.18;5.72;;;14.10;99.90;;;14.67;77.41;102242.25;5115574;28;20416;-60
2022/06/14 03:33:46;;;;;;;8.48;5.03;;;14.20;99.90;;;14.63;76.29;102252.88;5096836;28;20052;-60
2022/06/14 03:36:16;;;;;;;6.28;4.70;;;14.20;99.90;;;14.56;77.22;102262.63;5114668;28;20043;-59
2022/06/14 03:38:51;;;;;;;5.30;4.70;;;14.20;99.90;;;14.47;76.89;102262.63;5114663;28;20043;-60
2022/06/14 03:41:24;;;;;;;7.63;4.90;;;14.10;99.90;;;14.37;76.33;102250.16;5114923;28;20138;-60
2022/06/14 03:43:57;;;;;;;8.13;5.25;;;14.00;99.90;;;14.40;76.51;102247.53;5114598;28;20040;-59
2022/06/14 03:46:33;;;;;;;8.15;5.85;;;14.10;99.90;;;14.55;76.19;102250.22;5114491;28;20054;-60
2022/06/14 03:49:07;;;;;;;6.70;5.50;;;14.20;99.90;;;14.68;76.60;102260.00;5114429;28;20356;-59
2022/06/14 03:51:58;;;;;;;9.43;6.15;;;14.20;99.90;;;14.69;75.88;102256.41;5114322;28;20484;-60
2022/06/14 03:54:44;;;;;;;;;;;14.20;99.90;;;14.75;75.86;102263.56;5115290;28;20039;-60
2022/06/14 03:57:33;;;;;;;10.77;5.55;;;14.30;99.90;;;14.81;76.34;102252.88;5114425;28;19961;-60
2022/06/14 04:00:13;;;;;;;9.52;5.80;;;14.40;99.90;;;14.87;76.03;102264.44;5114344;28;20407;-60
2022/06/14 04:02:57;;;;;;;8.27;5.85;;;14.40;99.90;;;14.86;75.75;102265.34;5114304;28;20443;-60
2022/06/14 04:05:43;;;;;;;8.48;6.28;;;14.40;99.90;;;14.91;74.84;102266.22;5114001;28;20043;-60
2022/06/14 04:08:24;;;;;;;6.03;5.15;;;14.50;99.90;;;14.91;75.83;102271.53;5114217;28;20446;-60
2022/06/14 04:11:06;;;;;;;9.13;5.63;;;14.50;99.90;;;14.76;75.48;102267.97;5095672;28;20465;-60
2022/06/14 04:13:42;;;;;;;9.13;5.82;;;14.40;99.90;;;14.70;75.07;102266.22;5113850;28;20047;-60
2022/06/14 04:16:23;;;;;;;7.60;5.80;;;14.30;99.90;;;14.63;74.22;102267.09;5092070;28;20078;-60
2022/06/14 04:19:00;;;;;;;6.28;5.63;;;14.30;99.90;;;14.62;75.07;102261.75;5093605;28;20500;-60
2022/06/14 04:21:37;;;;;;;6.57;4.75;;;14.20;99.90;;;14.70;76.68;102265.31;5093376;28;20082;-60
2022/06/14 04:24:14;;;;;;;10.68;5.10;;;14.20;99.90;;;14.70;76.79;102267.97;5093142;28;20067;-60
2022/06/14 04:26:49;;;;;;;5.97;5.18;;;14.30;99.90;;;14.71;76.38;102257.31;5093232;28;20498;-60
2022/06/14 04:29:26;;;;;;;6.07;4.47;;;14.30;99.90;;;14.53;76.33;102246.66;5093725;28;20063;-59
2022/06/14 04:32:03;;;;;;;7.40;5.25;;;14.20;99.90;;;14.51;76.71;102266.19;5093114;28;20044;-60
2022/06/14 04:34:39;;;;;;;6.45;5.38;;;14.20;99.90;;;14.57;77.08;102268.84;5091837;28;20048;-60
2022/06/14 04:37:14;;;;;;;10.65;6.03;;;14.20;99.90;;;14.59;76.63;102261.75;5092857;28;20097;-60
2022/06/14 04:39:47;;;;;;;10.52;6.13;;;14.20;99.90;;;14.56;76.10;102262.63;5093231;28;20071;-59
2022/06/14 04:42:20;;;;;;;10.00;6.22;;;14.20;99.90;;;14.71;74.79;102262.66;5092867;28;20143;-60
2022/06/14 04:44:55;;;;;;;9.55;6.25;;;14.30;99.90;;;14.75;74.61;102266.22;5093427;28;20040;-60
2022/06/14 04:47:32;;;;;;;11.07;6.25;;;14.30;99.90;;;14.81;75.40;102267.09;5092667;28;20121;-60
2022/06/14 04:50:06;;;;;;;20.10;7.85;;;14.40;99.90;;;14.75;74.87;102236.91;5092781;28;20075;-59
2022/06/14 04:52:39;;;;;;;24.05;17.70;;;14.50;99.90;;;14.98;73.80;102267.97;5092615;28;20040;-60
2022/06/14 04:55:14;;;;;;;14.20;9.88;;;14.50;99.90;;;15.14;73.01;102263.53;5092582;28;20075;-60
2022/06/14 04:57:48;;;;;;;9.25;6.20;;;14.70;99.90;;;15.27;72.55;102266.19;5092777;28;20055;-60
2022/06/14 05:00:20;;;;;;;10.35;6.35;;;14.80;99.90;;;15.41;72.01;102268.84;5092647;28;20044;-59
2022/06/14 05:02:57;;;;;;;9.20;5.68;;;15.00;99.90;;;15.60;72.54;102275.94;5092529;28;20044;-60
2022/06/14 05:05:32;;;;;;;10.35;6.63;;;15.10;99.90;;;15.84;73.21;102275.88;5092432;28;20127;-60
2022/06/14 05:08:08;;;;;;;7.70;6.20;;;15.30;99.90;;;16.08;74.71;102282.91;5092359;28;20075;-60
2022/06/14 05:10:45;;;;;;;8.85;6.97;;;15.60;99.90;;;16.23;75.57;102282.84;5092509;28;20074;-60
2022/06/14 05:13:19;;;;;;;13.05;9.65;;;15.80;99.90;;;16.40;75.41;102283.63;5091242;28;20144;-60
2022/06/14 05:15:54;;;;;;;11.55;8.25;;;15.90;99.90;;;16.58;74.54;102282.66;5106049;28;20134;-60
2022/06/14 05:18:39;;;;;;;9.95;6.97;;;16.10;99.90;;;16.54;73.79;102254.19;5112427;28;20453;-60
2022/06/14 05:21:17;;;;;;;7.70;6.40;;;16.20;99.90;;;16.68;72.54;102269.25;5112385;28;20100;-59
2022/06/14 05:23:49;;;;;;;9.50;7.05;;;16.20;99.90;;;16.89;72.61;102276.22;5112364;28;20477;-60
2022/06/14 05:26:26;;;;;;;11.80;8.85;;;16.40;99.90;;;16.85;72.14;102277.13;5112358;28;20073;-60
2022/06/14 05:29:10;;;;;;;13.23;8.77;;;16.40;99.90;;;16.91;71.42;102279.75;5111444;28;20077;-60
2022/06/14 05:31:48;;;;;;;12.45;9.20;;;16.50;99.90;;;16.64;71.95;102200.69;5112298;28;20040;-60
2022/06/14 05:34:31;;;;;;;15.88;9.23;;;16.60;99.90;;;17.04;72.16;102279.66;5112816;28;20115;-60
2022/06/14 05:37:08;;;;;;;13.77;10.07;;;16.60;99.90;;;16.92;72.79;102285.09;5094148;28;20472;-60
2022/06/14 05:39:46;;;;;;;13.23;9.20;;;16.50;99.90;;;16.98;72.87;102285.03;5112247;28;20130;-59
2022/06/14 05:42:20;;;;;;;17.05;8.57;;;16.60;99.90;;;17.08;72.62;102280.50;5112234;28;20078;-60
2022/06/14 05:44:55;;;;;;;14.27;10.68;;;16.60;99.90;;;17.13;73.29;102279.56;5112332;28;20059;-60
2022/06/14 05:47:32;;;;;;;12.15;8.75;;;16.70;99.90;;;17.33;74.02;102281.16;5112195;28;20048;-60
2022/06/14 05:50:10;;;;;;;12.18;6.72;;;16.90;99.90;;;17.44;72.18;102281.97;5112425;28;20466;-60
2022/06/14 05:52:45;;;;;;;11.77;7.22;;;17.10;99.90;;;17.45;70.80;102283.72;5094117;28;20446;-60
2022/06/14 05:55:17;;;;;;;11.52;6.00;;;17.10;99.90;;;17.32;70.52;102277.63;5112082;28;20126;-60
2022/06/14 05:57:52;;;;;;;14.13;5.85;;;17.00;99.90;;;17.63;69.23;102287.16;5112358;28;20075;-60
2022/06/14 06:00:26;;;;;;;13.63;6.78;;;17.20;99.90;;;17.66;67.27;102278.19;5112168;28;20048;-60
2022/06/14 06:03:06;;;;;;;13.35;6.78;;;17.30;99.90;;;17.76;66.64;102285.22;5112398;28;20051;-60
2022/06/14 06:05:42;;;;;;;17.63;7.65;;;17.40;99.90;;;17.77;66.64;102289.66;5112556;28;20065;-60
2022/06/14 06:08:16;;;;;;;13.07;6.80;;;17.40;99.90;;;17.65;66.34;102271.94;5112257;28;20051;-60
2022/06/14 06:10:49;;;;;;;12.23;7.75;;;17.50;99.90;;;17.18;67.06;102175.22;5112183;28;20576;-60
2022/06/14 06:13:24;;;;;;;14.48;6.45;;;17.40;99.90;;;17.82;65.90;102285.16;5112761;28;20044;-60
2022/06/14 06:15:57;;;;;;;10.05;5.82;;;17.50;99.90;;;17.81;64.82;102286.03;5112570;28;20047;-60
2022/06/14 06:18:33;;;;;;;11.18;5.60;;;17.50;99.90;;;17.94;64.87;102288.53;5112996;28;20035;-60
2022/06/14 06:21:16;;;;;;;15.02;5.43;;;17.60;99.90;;;18.08;63.64;102287.53;5112677;28;20043;-60
2022/06/14 06:23:51;;;;;;;7.85;4.60;;;17.70;99.90;;;18.22;60.85;102285.53;5112414;28;20105;-60
2022/06/14 06:26:23;;;;;;;10.32;4.82;;;17.90;99.90;;;18.36;60.91;102289.81;5112809;28;20043;-60
2022/06/14 06:28:58;;;;;;;8.35;5.00;;;18.00;99.90;;;18.50;59.20;102300.38;5112364;28;20134;-60
2022/06/14 06:31:31;;;;;;;10.75;4.60;;;18.10;99.90;;;18.60;57.45;102296.66;5112325;28;20043;-60
2022/06/14 06:34:02;;;;;;;10.23;5.78;;;18.20;99.90;;;18.72;56.67;102293.78;5112732;28;20089;-60
2022/06/14 06:36:51;;;;;;;8.40;5.80;;;18.40;99.90;;;18.87;56.76;102296.25;5112480;28;20047;-60
2022/06/14 06:39:41;;;;;;;11.55;5.47;;;18.50;99.90;;;18.97;55.83;102305.03;5111989;28;20067;-60
2022/06/14 06:42:16;;;;;;;10.15;5.00;;;18.60;99.90;;;19.15;55.32;102304.72;5115885;28;20039;-60
2022/06/14 06:44:55;;;;;;;12.25;5.28;;;18.80;99.90;;;19.23;54.95;102303.69;5115915;28;20047;-60
2022/06/14 06:47:31;;;;;;;9.95;5.30;;;18.90;99.90;;;19.42;54.33;102301.59;5115654;28;20047;-60
2022/06/14 06:50:23;;;;;;;9.98;6.07;;;19.10;99.90;;;19.47;55.21;102305.09;5115697;28;20051;-61
2022/06/14 06:53:04;;;;;;;9.95;5.88;;;19.10;99.90;;;19.63;54.76;102302.06;5111766;28;20071;-60
2022/06/14 06:55:51;;;;;;;8.10;5.47;;;19.30;99.90;;;19.70;53.60;102311.78;5115244;28;20493;-60
2022/06/14 06:58:29;;;;;;;9.23;5.13;;;19.40;99.90;;;19.84;52.99;102306.13;5115281;28;20040;-60
2022/06/14 07:01:01;;;;;;;10.07;5.07;;;19.60;99.90;;;19.90;54.01;102314.09;5115296;28;20043;-60
2022/06/14 07:03:43;;;;;;;9.52;5.22;;;19.60;99.90;;;19.91;53.95;102301.53;5115263;28;20447;-60
2022/06/14 07:06:18;;;;;;;15.00;5.80;;;19.70;99.90;;;20.00;52.74;102309.41;5115121;28;20151;-60
2022/06/14 07:09:00;;;;;;;10.95;5.30;;;19.70;99.90;;;20.07;53.14;102309.28;5115370;28;20416;-60
2022/06/14 07:11:34;;;;;;;14.98;6.13;;;19.80;99.90;;;20.19;53.80;102318.94;5115035;28;20055;-60
2022/06/14 07:14:08;;;;;;;12.85;5.75;;;19.80;99.90;;;20.07;52.61;102289.59;5115493;28;20035;-60
2022/06/14 07:16:44;;;;;;;10.98;6.40;;;19.90;99.90;;;20.27;51.22;102317.84;5114983;28;20438;-60
2022/06/14 07:19:23;;;;;;;11.13;5.90;;;20.00;99.90;;;20.33;50.51;102316.81;5115246;28;20079;-61
2022/06/14 07:21:58;;;;;;;9.70;5.50;;;20.00;99.90;;;20.40;49.68;102323.84;5115186;28;20395;-60
2022/06/14 07:24:34;;;;;;;13.40;6.57;;;20.10;99.90;;;20.46;49.16;102318.34;5114761;28;20047;-60
2022/06/14 07:27:27;;;;;;;11.15;6.75;;;20.20;99.90;;;20.41;48.99;102309.47;5114831;28;20143;-60
2022/06/14 07:30:02;;;;;;;15.73;6.47;;;20.10;99.90;;;20.48;48.34;102312.00;5096559;28;20394;-60
2022/06/14 07:32:35;;;;;;;11.30;6.18;;;20.20;99.90;;;20.58;48.95;102313.56;5114371;28;20433;-60
2022/06/14 07:35:04;;;;;;;11.45;5.72;;;20.30;99.90;;;20.61;48.42;102318.84;5114305;28;20043;-60
2022/06/14 07:37:41;;;;;;;7.57;5.38;;;20.30;99.90;;;20.66;48.71;102316.97;5114398;28;20028;-60
2022/06/14 07:40:37;;;;;;;14.52;6.10;;;20.30;99.90;;;20.72;48.01;102317.72;5114584;28;20040;-60
2022/06/14 07:43:13;;;;;;;7.68;4.78;;;20.40;99.90;;;20.81;47.85;102315.72;5114365;28;20063;-60
2022/06/14 07:45:44;;;;;;;5.80;4.60;;;20.50;99.90;;;20.89;47.96;102316.41;5114688;28;20047;-60
2022/06/14 07:48:21;;;;;;;7.18;4.05;;;20.60;99.90;;;20.96;47.27;102325.25;5114248;28;20118;-60
2022/06/14 07:50:55;;;;;;;7.93;4.35;;;20.60;99.90;;;21.04;46.03;102317.91;5114223;28;20085;-60
2022/06/14 07:53:33;;;;;;;10.15;4.63;;;20.70;99.90;;;21.11;46.03;102316.81;5113346;28;20505;-61
2022/06/14 07:56:08;;;;;;;7.82;4.60;;;20.70;99.90;;;21.19;46.13;102321.09;5114155;28;20082;-60
2022/06/14 07:58:42;;;;;;;7.57;4.68;;;20.80;99.90;;;21.21;46.47;102316.56;5113998;28;20116;-61
2022/06/14 08:01:20;;;;;;;7.82;4.22;;;20.90;99.90;;;21.30;46.78;102326.19;5114467;28;20063;-61
2022/06/14 08:03:53;;;;;;;7.38;3.88;;;21.00;99.90;;;21.35;46.85;102324.28;5114183;28;20075;-61
2022/06/14 08:06:25;;;;;;;12.60;4.53;;;21.00;99.90;;;21.40;47.10;102316.97;5113846;28;20131;-60
2022/06/14 08:09:02;;;;;;;8.40;4.90;;;21.00;99.90;;;21.48;46.80;102321.25;5113843;28;20096;-61
2022/06/14 08:11:43;;;;;;;9.60;4.40;;;21.20;99.90;;;19.94;47.66;102315.78;5113746;28;20051;-61
2022/06/14 08:14:18;;;;;;;7.80;4.75;;;20.00;99.90;;;19.85;49.11;102302.56;5113738;28;20435;-61
2022/06/14 08:16:48;;;;;;;7.70;5.13;;;19.40;99.90;;;20.02;48.61;102305.78;5113653;28;20039;-61
2022/06/14 08:19:22;;;;;;;10.00;5.05;;;19.60;99.90;;;19.78;49.21;102307.16;5114035;28;20039;-60
2022/06/14 08:21:57;;;;;;;11.57;4.55;;;19.40;99.90;;;19.62;48.88;102300.31;5095519;28;20048;-61
2022/06/14 08:24:31;;;;;;;7.75;4.95;;;19.30;99.90;;;19.20;51.05;102284.06;5113771;28;20048;-60
2022/06/14 08:27:07;;;;;;;8.75;4.63;;;18.90;99.90;;;19.60;50.41;102296.78;5095362;28;20468;-61
2022/06/14 08:29:42;;;;;;;12.90;5.32;;;19.10;99.90;;;19.79;50.54;102287.47;5113719;28;20047;-61
2022/06/14 08:32:16;;;;;;;9.15;5.22;;;19.20;99.90;;;19.27;51.40;102281.25;5113736;28;20118;-61
2022/06/14 08:34:50;;;;;;;8.52;4.57;;;19.00;99.90;;;19.74;50.97;102281.28;5113371;28;20043;-61
2022/06/14 08:37:25;;;;;;;8.40;4.53;;;19.20;99.90;;;19.77;50.60;102289.28;5113612;28;20445;-61
2022/06/14 08:40:01;;;;;;;10.30;4.97;;;19.40;99.90;;;19.51;51.42;102282.66;5113549;28;20055;-61
2022/06/14 08:42:35;;;;;;;9.00;4.40;;;19.10;99.90;;;19.91;51.22;102296.19;5113394;28;20335;-61
2022/06/14 08:45:14;;;;;;;9.85;5.25;;;19.50;99.90;;;19.12;50.08;102291.34;5113799;28;20071;-61
2022/06/14 08:48:05;;;;;;;7.63;4.65;;;19.00;99.90;;;19.76;51.61;102286.63;5113115;28;20067;-61
2022/06/14 08:51:00;;;;;;;9.32;5.35;;;19.20;99.90;;;19.64;49.23;102279.69;5113114;28;20554;-61
2022/06/14 08:54:30;;;;;;;7.10;4.22;;;19.20;99.90;;;20.14;49.71;102283.16;5095016;28;20399;-61
2022/06/14 08:57:22;;;;;;;8.68;5.03;;;19.50;99.90;;;20.35;48.47;102282.72;5093919;28;20134;-61
2022/06/14 09:00:25;;;;;;;10.45;4.90;;;19.90;99.90;;;20.42;48.06;102252.97;5113297;28;20044;-59
2022/06/14 09:03:44;;;;;;;10.20;5.18;;;20.20;99.90;;;20.15;49.04;102275.06;5113098;28;20537;-59
2022/06/14 09:07:02;;;;;;;9.75;5.40;;;19.80;99.90;;;19.94;50.44;102267.44;5112958;28;20471;-59
2022/06/14 09:10:03;;;;;;;10.82;5.38;;;19.50;99.90;;;20.18;50.64;102264.28;5107004;28;20056;-59
2022/06/14 09:13:42;;;;;;;8.77;4.72;;;19.60;99.90;;;20.54;50.60;102263.44;5112843;28;20044;-59
2022/06/14 09:17:04;;;;;;;8.43;5.88;;;20.00;99.90;;;19.74;49.36;102269.66;5076810;28;20047;-60
2022/06/14 09:20:02;;;;;;;11.57;5.50;;;19.80;99.90;;;19.56;49.45;102261.97;5113012;28;20059;-60
2022/06/14 09:22:46;;;;;;;8.82;5.60;;;19.20;99.90;;;19.84;51.43;102262.31;5113106;28;20134;-60
2022/06/14 09:26:05;;;;;;;9.23;5.35;;;19.20;99.90;;;20.17;48.14;102272.34;5113304;28;20085;-60
2022/06/14 09:29:22;;;;;;;9.18;5.72;;;19.80;99.90;;;20.29;47.89;102267.63;5096497;28;20070;-60
2022/06/14 09:35:59;;;;;;;8.88;5.32;;;20.30;99.90;;;20.69;45.80;102268.47;5112160;28;20047;-60
2022/06/14 09:39:11;;;;;;;10.27;4.95;;;20.50;99.90;;;20.75;48.56;102258.50;5112961;28;20407;-60
2022/06/14 09:42:33;;;;;;;11.00;6.25;;;20.30;99.90;;;20.10;47.62;102262.63;5112490;28;20543;-60
2022/06/14 09:45:42;;;;;;;10.15;5.25;;;20.00;99.90;;;20.40;48.50;102257.50;5112291;28;20047;-59
2022/06/14 09:48:47;;;;;;;9.77;5.25;;;19.90;99.90;;;19.87;47.26;102257.75;5112320;28;20485;-60
2022/06/14 09:52:01;;;;;;;10.93;6.22;;;19.60;99.90;;;20.63;48.54;102252.47;5112318;28;20474;-60
2022/06/14 09:55:20;;;;;;;8.65;5.32;;;20.00;99.90;;;21.19;46.75;102253.81;5112754;28;20120;-60
2022/06/14 09:58:19;;;;;;;8.98;5.60;;;20.60;99.90;;;21.01;45.28;102248.88;5112055;28;20071;-60
2022/06/14 10:00:56;;;;;;;9.73;5.95;;;20.70;99.90;;;20.85;45.62;102244.78;5099003;28;20056;-60
2022/06/14 10:04:01;;;;;;;8.65;5.10;;;20.50;99.90;;;20.36;47.97;102236.97;5094027;28;20139;-60
2022/06/14 10:07:08;;;;;;;11.50;5.70;;;20.20;99.90;;;20.33;47.55;102263.06;5112236;28;20108;-59
2022/06/14 10:09:58;;;;;;;6.72;5.18;;;20.20;99.90;;;20.34;48.01;102225.38;5093742;28;20052;-60
2022/06/14 10:13:15;;;;;;;8.40;5.43;;;20.00;99.90;;;20.65;46.21;102237.19;5111985;28;20454;-60
2022/06/14 10:15:54;;;;;;;9.23;5.78;;;20.30;99.90;;;20.38;46.83;102226.22;5089575;28;20134;-60
2022/06/14 10:18:47;;;;;;;9.18;5.82;;;20.00;99.90;;;20.33;46.87;102226.31;5116391;28;20048;-60
2022/06/14 10:21:20;;;;;;;9.63;5.50;;;20.00;99.90;;;20.74;46.73;102222.66;5116323;28;20118;-60
2022/06/14 10:24:03;;;;;;;6.97;5.20;;;20.20;99.90;;;21.17;46.30;102222.47;5115889;28;20397;-60
2022/06/14 10:29:58;;;;;;;11.15;6.25;;;21.10;99.90;;;21.76;44.70;102219.00;5115658;28;20059;-60
2022/06/14 10:33:16;;;;;;;7.65;5.93;;;21.40;99.90;;;22.00;45.39;102221.00;5115717;28;20036;-60
2022/06/14 10:35:54;;;;;;;11.52;5.53;;;21.60;99.90;;;22.15;44.04;102212.44;5100603;28;20066;-60
2022/06/14 10:39:10;;;;;;;11.32;5.65;;;21.90;99.90;;;22.36;44.74;102219.88;5115900;28;20070;-60
2022/06/14 10:41:42;;;;;;;14.02;5.57;;;22.00;99.90;;;22.55;44.95;102219.28;5115845;28;20134;-60
2022/06/14 10:44:24;;;;;;;9.80;5.50;;;22.20;99.90;;;22.66;45.21;102220.75;5115815;28;20047;-60
2022/06/14 10:47:02;;;;;;;7.80;5.22;;;22.30;99.90;;;22.37;43.25;102150.66;5115402;28;20542;-60
2022/06/14 10:50:21;;;;;;;8.65;5.25;;;22.40;99.90;;;22.72;43.12;102204.34;5115304;28;20032;-59
2022/06/14 10:53:21;;;;;;;9.45;5.40;;;22.40;99.90;;;22.10;43.01;102214.41;5115869;28;20051;-59
2022/06/14 10:56:10;;;;;;;10.13;5.30;;;22.00;99.90;;;22.00;44.38;102210.22;5115196;28;20059;-59
2022/06/14 10:59:17;;;;;;;8.52;5.20;;;21.70;99.90;;;21.40;45.66;102206.56;5115168;28;20048;-59
2022/06/14 11:01:54;;;;;;;8.55;5.63;;;21.20;99.90;;;21.40;45.28;102206.56;5115065;28;20089;-59
2022/06/14 11:04:31;;;;;;;6.75;5.10;;;21.10;99.90;;;20.73;45.11;102203.88;5115455;28;20046;-59
2022/06/14 11:07:31;;;;;;;9.15;5.72;;;20.50;99.90;;;21.23;45.13;102201.66;5115122;28;20047;-61
2022/06/14 11:10:31;;;;;;;8.27;6.10;;;20.70;99.90;;;21.65;43.88;102194.19;5114959;28;20044;-59
2022/06/14 11:13:10;;;;;;;9.43;5.93;;;21.10;99.90;;;22.02;43.62;102185.91;5103664;28;20106;-59
2022/06/14 11:15:46;;;;;;;7.63;5.15;;;21.50;99.90;;;22.27;43.62;102185.13;5114902;28;20213;-60